sensor_id;sensor_type;location;lat;lon;timestamp;temperature;humidity
14705;DHT22;7442;50.840;3.396;2022-10-16T00:00:15;22.20;57.30
14705;DHT22;7442;50.840;3.396;2022-10-16T00:02:45;22.20;57.20
14705;DHT22;7442;50.840;3.396;2022-10-16T00:05:15;22.20;57.20
14705;DHT22;7442;50.840;3.396;2022-10-16T00:07:45;22.10;57.20
14705;DHT22;7442;50.840;3.396;2022-10-16T00:10:15;22.20;57.20
14705;DHT22;7442;50.840;3.396;2022-10-16T00:12:45;22.20;57.10
14705;DHT22;7442;50.840;3.396;2022-10-16T00:15:15;22.20;57.10
14705;DHT22;7442;50.840;3.396;2022-10-16T00:17:45;22.20;57.00
14705;DHT22;7442;50.840;3.396;2022-10-16T00:20:16;22.20;56.90
14705;DHT22;7442;50.840;3.396;2022-10-16T00:22:46;22.20;57.00
14705;DHT22;7442;50.840;3.396;2022-10-16T00:25:17;22.20;57.10
14705;DHT22;7442;50.840;3.396;2022-10-16T00:27:47;22.20;57.70
14705;DHT22;7442;50.840;3.396;2022-10-16T00:30:19;22.20;57.00
14705;DHT22;7442;50.840;3.396;2022-10-16T00:32:49;22.20;57.00
14705;DHT22;7442;50.840;3.396;2022-10-16T00:35:19;22.20;56.90
14705;DHT22;7442;50.840;3.396;2022-10-16T00:37:49;22.20;56.90
14705;DHT22;7442;50.840;3.396;2022-10-16T00:40:19;22.20;57.00
14705;DHT22;7442;50.840;3.396;2022-10-16T00:42:49;22.20;56.90
14705;DHT22;7442;50.840;3.396;2022-10-16T00:45:19;22.20;56.90
14705;DHT22;7442;50.840;3.396;2022-10-16T00:47:49;22.20;56.90
14705;DHT22;7442;50.840;3.396;2022-10-16T00:50:31;22.20;56.80
14705;DHT22;7442;50.840;3.396;2022-10-16T00:53:03;22.20;56.80
14705;DHT22;7442;50.840;3.396;2022-10-16T00:55:33;22.20;56.80
14705;DHT22;7442;50.840;3.396;2022-10-16T00:58:03;22.20;56.90
14705;DHT22;7442;50.840;3.396;2022-10-16T01:00:33;22.10;57.00
14705;DHT22;7442;50.840;3.396;2022-10-16T01:03:21;22.10;57.00
14705;DHT22;7442;50.840;3.396;2022-10-16T01:05:42;22.10;57.00
14705;DHT22;7442;50.840;3.396;2022-10-16T01:08:22;22.10;57.00
14705;DHT22;7442;50.840;3.396;2022-10-16T01:11:06;22.10;57.00
14705;DHT22;7442;50.840;3.396;2022-10-16T01:13:42;22.10;56.90
14705;DHT22;7442;50.840;3.396;2022-10-16T01:16:18;22.10;56.90
14705;DHT22;7442;50.840;3.396;2022-10-16T01:18:57;22.10;57.00
14705;DHT22;7442;50.840;3.396;2022-10-16T01:21:29;22.00;56.90
14705;DHT22;7442;50.840;3.396;2022-10-16T01:27:08;22.00;57.10
14705;DHT22;7442;50.840;3.396;2022-10-16T01:30:04;22.00;57.20
14705;DHT22;7442;50.840;3.396;2022-10-16T01:32:42;22.10;57.10
14705;DHT22;7442;50.840;3.396;2022-10-16T01:37:57;22.00;57.10
14705;DHT22;7442;50.840;3.396;2022-10-16T01:40:27;22.00;57.00
14705;DHT22;7442;50.840;3.396;2022-10-16T01:43:03;22.00;57.00
14705;DHT22;7442;50.840;3.396;2022-10-16T01:45:35;22.10;57.00
14705;DHT22;7442;50.840;3.396;2022-10-16T01:48:07;22.10;57.00
14705;DHT22;7442;50.840;3.396;2022-10-16T01:50:41;22.00;56.90
14705;DHT22;7442;50.840;3.396;2022-10-16T01:53:13;22.00;57.00
14705;DHT22;7442;50.840;3.396;2022-10-16T01:55:52;22.00;57.00
14705;DHT22;7442;50.840;3.396;2022-10-16T01:58:18;22.00;56.90
14705;DHT22;7442;50.840;3.396;2022-10-16T02:00:48;22.10;56.90
14705;DHT22;7442;50.840;3.396;2022-10-16T02:03:29;22.10;56.90
14705;DHT22;7442;50.840;3.396;2022-10-16T02:06:01;22.10;56.80
14705;DHT22;7442;50.840;3.396;2022-10-16T02:08:31;22.10;56.70
14705;DHT22;7442;50.840;3.396;2022-10-16T02:11:02;22.10;56.70
14705;DHT22;7442;50.840;3.396;2022-10-16T02:13:46;22.10;56.70
14705;DHT22;7442;50.840;3.396;2022-10-16T02:16:17;22.10;56.70
14705;DHT22;7442;50.840;3.396;2022-10-16T02:18:47;22.10;56.70
14705;DHT22;7442;50.840;3.396;2022-10-16T02:21:23;22.00;56.80
14705;DHT22;7442;50.840;3.396;2022-10-16T02:26:51;22.00;57.00
14705;DHT22;7442;50.840;3.396;2022-10-16T02:29:23;22.00;57.10
14705;DHT22;7442;50.840;3.396;2022-10-16T02:31:57;22.00;57.10
14705;DHT22;7442;50.840;3.396;2022-10-16T02:34:28;22.00;57.00
14705;DHT22;7442;50.840;3.396;2022-10-16T02:37:01;22.00;56.80
14705;DHT22;7442;50.840;3.396;2022-10-16T02:39:32;22.00;56.80
14705;DHT22;7442;50.840;3.396;2022-10-16T02:42:02;22.00;56.80
14705;DHT22;7442;50.840;3.396;2022-10-16T02:44:32;22.00;56.80
14705;DHT22;7442;50.840;3.396;2022-10-16T02:47:02;22.00;56.70
14705;DHT22;7442;50.840;3.396;2022-10-16T02:49:32;22.00;56.70
14705;DHT22;7442;50.840;3.396;2022-10-16T02:52:03;22.00;56.60
14705;DHT22;7442;50.840;3.396;2022-10-16T02:54:33;22.00;56.70
14705;DHT22;7442;50.840;3.396;2022-10-16T02:57:03;22.00;56.80
14705;DHT22;7442;50.840;3.396;2022-10-16T02:59:33;21.90;56.90
14705;DHT22;7442;50.840;3.396;2022-10-16T03:02:03;21.90;56.90
14705;DHT22;7442;50.840;3.396;2022-10-16T03:04:33;21.90;57.00
14705;DHT22;7442;50.840;3.396;2022-10-16T03:07:04;21.90;56.90
14705;DHT22;7442;50.840;3.396;2022-10-16T03:09:34;21.90;57.10
14705;DHT22;7442;50.840;3.396;2022-10-16T03:12:04;21.90;57.10
14705;DHT22;7442;50.840;3.396;2022-10-16T03:14:34;21.90;57.10
14705;DHT22;7442;50.840;3.396;2022-10-16T03:17:04;21.90;57.00
14705;DHT22;7442;50.840;3.396;2022-10-16T03:19:34;21.90;56.80
14705;DHT22;7442;50.840;3.396;2022-10-16T03:22:06;21.90;56.90
14705;DHT22;7442;50.840;3.396;2022-10-16T03:24:36;21.90;56.90
14705;DHT22;7442;50.840;3.396;2022-10-16T03:27:13;21.90;57.00
14705;DHT22;7442;50.840;3.396;2022-10-16T03:29:42;21.90;57.00
14705;DHT22;7442;50.840;3.396;2022-10-16T03:32:12;21.90;57.10
14705;DHT22;7442;50.840;3.396;2022-10-16T03:34:42;21.90;57.00
14705;DHT22;7442;50.840;3.396;2022-10-16T03:37:12;21.90;57.00
14705;DHT22;7442;50.840;3.396;2022-10-16T03:39:42;21.90;57.10
14705;DHT22;7442;50.840;3.396;2022-10-16T03:42:12;21.80;57.00
14705;DHT22;7442;50.840;3.396;2022-10-16T03:44:42;21.90;57.10
14705;DHT22;7442;50.840;3.396;2022-10-16T03:47:12;21.80;57.10
14705;DHT22;7442;50.840;3.396;2022-10-16T03:49:42;21.90;57.00
14705;DHT22;7442;50.840;3.396;2022-10-16T03:52:12;21.90;56.90
14705;DHT22;7442;50.840;3.396;2022-10-16T03:54:43;21.90;57.50
14705;DHT22;7442;50.840;3.396;2022-10-16T03:57:13;21.90;56.80
14705;DHT22;7442;50.840;3.396;2022-10-16T03:59:43;21.90;56.80
14705;DHT22;7442;50.840;3.396;2022-10-16T04:02:13;21.90;56.80
14705;DHT22;7442;50.840;3.396;2022-10-16T04:04:43;21.90;56.70
14705;DHT22;7442;50.840;3.396;2022-10-16T04:07:13;21.90;56.80
14705;DHT22;7442;50.840;3.396;2022-10-16T04:09:43;21.90;56.70
14705;DHT22;7442;50.840;3.396;2022-10-16T04:12:13;21.90;56.60
14705;DHT22;7442;50.840;3.396;2022-10-16T04:14:44;21.90;56.60
14705;DHT22;7442;50.840;3.396;2022-10-16T04:17:14;21.90;56.70
14705;DHT22;7442;50.840;3.396;2022-10-16T04:19:44;21.80;56.90
14705;DHT22;7442;50.840;3.396;2022-10-16T04:22:14;21.80;56.90
14705;DHT22;7442;50.840;3.396;2022-10-16T04:24:44;21.70;57.00
14705;DHT22;7442;50.840;3.396;2022-10-16T04:27:14;21.70;57.10
14705;DHT22;7442;50.840;3.396;2022-10-16T04:29:46;21.70;57.00
14705;DHT22;7442;50.840;3.396;2022-10-16T04:32:16;21.80;56.90
14705;DHT22;7442;50.840;3.396;2022-10-16T04:34:46;21.80;56.90
14705;DHT22;7442;50.840;3.396;2022-10-16T04:37:16;21.70;57.00
14705;DHT22;7442;50.840;3.396;2022-10-16T04:39:46;21.70;57.10
14705;DHT22;7442;50.840;3.396;2022-10-16T04:42:16;21.70;57.10
14705;DHT22;7442;50.840;3.396;2022-10-16T04:44:46;21.70;57.10
14705;DHT22;7442;50.840;3.396;2022-10-16T04:47:16;21.70;57.10
14705;DHT22;7442;50.840;3.396;2022-10-16T04:49:46;21.70;57.10
14705;DHT22;7442;50.840;3.396;2022-10-16T04:52:17;21.70;57.00
14705;DHT22;7442;50.840;3.396;2022-10-16T04:54:48;21.60;57.10
14705;DHT22;7442;50.840;3.396;2022-10-16T04:57:19;21.60;57.10
14705;DHT22;7442;50.840;3.396;2022-10-16T04:59:49;21.70;57.10
14705;DHT22;7442;50.840;3.396;2022-10-16T05:02:19;21.70;57.00
14705;DHT22;7442;50.840;3.396;2022-10-16T05:04:49;21.70;57.00
14705;DHT22;7442;50.840;3.396;2022-10-16T05:07:19;21.70;56.90
14705;DHT22;7442;50.840;3.396;2022-10-16T05:09:49;21.70;56.90
14705;DHT22;7442;50.840;3.396;2022-10-16T05:12:19;21.70;57.00
14705;DHT22;7442;50.840;3.396;2022-10-16T05:14:49;21.70;57.20
14705;DHT22;7442;50.840;3.396;2022-10-16T05:17:19;21.70;57.00
14705;DHT22;7442;50.840;3.396;2022-10-16T05:19:49;21.70;57.00
14705;DHT22;7442;50.840;3.396;2022-10-16T05:22:19;21.70;57.00
14705;DHT22;7442;50.840;3.396;2022-10-16T05:24:50;21.70;57.00
14705;DHT22;7442;50.840;3.396;2022-10-16T05:27:20;21.70;56.90
14705;DHT22;7442;50.840;3.396;2022-10-16T05:29:50;21.70;57.00
14705;DHT22;7442;50.840;3.396;2022-10-16T05:32:20;21.60;56.90
14705;DHT22;7442;50.840;3.396;2022-10-16T05:34:51;21.70;56.90
14705;DHT22;7442;50.840;3.396;2022-10-16T05:37:21;21.70;56.90
14705;DHT22;7442;50.840;3.396;2022-10-16T05:39:51;21.60;56.90
14705;DHT22;7442;50.840;3.396;2022-10-16T05:42:21;21.60;57.10
14705;DHT22;7442;50.840;3.396;2022-10-16T05:44:51;21.60;57.00
14705;DHT22;7442;50.840;3.396;2022-10-16T05:47:21;21.60;57.00
14705;DHT22;7442;50.840;3.396;2022-10-16T05:49:51;21.60;57.10
14705;DHT22;7442;50.840;3.396;2022-10-16T05:52:21;21.60;57.10
14705;DHT22;7442;50.840;3.396;2022-10-16T05:54:51;21.60;56.90
14705;DHT22;7442;50.840;3.396;2022-10-16T05:57:21;21.60;56.90
14705;DHT22;7442;50.840;3.396;2022-10-16T05:59:51;21.60;56.90
14705;DHT22;7442;50.840;3.396;2022-10-16T06:02:21;21.60;56.80
14705;DHT22;7442;50.840;3.396;2022-10-16T06:04:54;21.60;57.00
14705;DHT22;7442;50.840;3.396;2022-10-16T06:07:24;21.50;57.10
14705;DHT22;7442;50.840;3.396;2022-10-16T06:09:54;21.50;57.20
14705;DHT22;7442;50.840;3.396;2022-10-16T06:12:29;21.50;57.10
14705;DHT22;7442;50.840;3.396;2022-10-16T06:14:56;21.50;57.30
14705;DHT22;7442;50.840;3.396;2022-10-16T06:17:27;21.50;57.20
14705;DHT22;7442;50.840;3.396;2022-10-16T06:19:57;21.60;57.00
14705;DHT22;7442;50.840;3.396;2022-10-16T06:22:28;21.50;57.00
14705;DHT22;7442;50.840;3.396;2022-10-16T06:24:58;21.60;57.00
14705;DHT22;7442;50.840;3.396;2022-10-16T06:27:29;21.60;57.10
14705;DHT22;7442;50.840;3.396;2022-10-16T06:29:59;21.60;57.60
14705;DHT22;7442;50.840;3.396;2022-10-16T06:32:34;21.60;57.10
14705;DHT22;7442;50.840;3.396;2022-10-16T06:35:01;21.50;57.00
14705;DHT22;7442;50.840;3.396;2022-10-16T06:37:31;21.50;57.10
14705;DHT22;7442;50.840;3.396;2022-10-16T06:40:02;21.50;57.10
14705;DHT22;7442;50.840;3.396;2022-10-16T06:42:34;21.50;57.00
14705;DHT22;7442;50.840;3.396;2022-10-16T06:45:04;21.60;57.00
14705;DHT22;7442;50.840;3.396;2022-10-16T06:47:40;21.60;57.00
14705;DHT22;7442;50.840;3.396;2022-10-16T06:50:11;21.50;57.00
14705;DHT22;7442;50.840;3.396;2022-10-16T06:52:41;21.50;57.00
14705;DHT22;7442;50.840;3.396;2022-10-16T06:55:11;21.60;57.00
14705;DHT22;7442;50.840;3.396;2022-10-16T06:57:41;21.60;56.90
14705;DHT22;7442;50.840;3.396;2022-10-16T07:00:11;21.60;56.90
14705;DHT22;7442;50.840;3.396;2022-10-16T07:02:41;21.60;56.90
14705;DHT22;7442;50.840;3.396;2022-10-16T07:05:11;21.50;56.90
14705;DHT22;7442;50.840;3.396;2022-10-16T07:07:41;21.50;57.10
14705;DHT22;7442;50.840;3.396;2022-10-16T07:10:11;21.50;56.90
14705;DHT22;7442;50.840;3.396;2022-10-16T07:12:41;21.50;57.20
14705;DHT22;7442;50.840;3.396;2022-10-16T07:15:13;21.50;57.20
14705;DHT22;7442;50.840;3.396;2022-10-16T07:17:43;21.50;57.20
14705;DHT22;7442;50.840;3.396;2022-10-16T07:20:13;21.50;57.10
14705;DHT22;7442;50.840;3.396;2022-10-16T07:22:43;21.50;57.10
14705;DHT22;7442;50.840;3.396;2022-10-16T07:25:14;21.50;57.10
14705;DHT22;7442;50.840;3.396;2022-10-16T07:27:44;21.50;57.20
14705;DHT22;7442;50.840;3.396;2022-10-16T07:30:14;21.50;57.20
14705;DHT22;7442;50.840;3.396;2022-10-16T07:32:44;21.50;57.00
14705;DHT22;7442;50.840;3.396;2022-10-16T07:35:14;21.50;57.70
14705;DHT22;7442;50.840;3.396;2022-10-16T07:37:47;21.50;57.20
14705;DHT22;7442;50.840;3.396;2022-10-16T07:40:17;21.50;57.30
14705;DHT22;7442;50.840;3.396;2022-10-16T07:42:47;21.50;57.10
14705;DHT22;7442;50.840;3.396;2022-10-16T07:45:17;21.50;57.10
14705;DHT22;7442;50.840;3.396;2022-10-16T07:47:47;21.60;57.10
14705;DHT22;7442;50.840;3.396;2022-10-16T07:50:17;21.60;57.00
14705;DHT22;7442;50.840;3.396;2022-10-16T07:52:47;21.60;57.00
14705;DHT22;7442;50.840;3.396;2022-10-16T07:55:17;21.60;57.00
14705;DHT22;7442;50.840;3.396;2022-10-16T07:57:47;21.60;57.00
14705;DHT22;7442;50.840;3.396;2022-10-16T08:00:17;21.60;56.90
14705;DHT22;7442;50.840;3.396;2022-10-16T08:02:47;21.70;56.90
14705;DHT22;7442;50.840;3.396;2022-10-16T08:05:22;21.70;56.70
14705;DHT22;7442;50.840;3.396;2022-10-16T08:07:52;21.70;56.60
14705;DHT22;7442;50.840;3.396;2022-10-16T08:10:24;21.80;56.60
14705;DHT22;7442;50.840;3.396;2022-10-16T08:12:55;21.80;56.50
14705;DHT22;7442;50.840;3.396;2022-10-16T08:15:25;21.80;56.50
14705;DHT22;7442;50.840;3.396;2022-10-16T08:18:00;21.70;56.60
14705;DHT22;7442;50.840;3.396;2022-10-16T08:20:33;21.80;56.60
14705;DHT22;7442;50.840;3.396;2022-10-16T08:23:03;21.70;56.60
14705;DHT22;7442;50.840;3.396;2022-10-16T08:25:40;21.70;56.70
14705;DHT22;7442;50.840;3.396;2022-10-16T08:28:11;21.80;56.60
14705;DHT22;7442;50.840;3.396;2022-10-16T08:30:41;21.90;56.50
14705;DHT22;7442;50.840;3.396;2022-10-16T08:33:11;21.90;56.40
14705;DHT22;7442;50.840;3.396;2022-10-16T08:35:54;21.90;56.30
14705;DHT22;7442;50.840;3.396;2022-10-16T08:38:24;21.90;56.30
14705;DHT22;7442;50.840;3.396;2022-10-16T08:41:08;21.90;56.30
14705;DHT22;7442;50.840;3.396;2022-10-16T08:43:53;21.90;56.30
14705;DHT22;7442;50.840;3.396;2022-10-16T08:46:22;22.00;56.40
14705;DHT22;7442;50.840;3.396;2022-10-16T08:48:56;22.00;56.40
14705;DHT22;7442;50.840;3.396;2022-10-16T08:51:32;22.00;56.30
14705;DHT22;7442;50.840;3.396;2022-10-16T08:54:51;22.00;56.20
14705;DHT22;7442;50.840;3.396;2022-10-16T08:56:38;22.00;56.20
14705;DHT22;7442;50.840;3.396;2022-10-16T08:59:09;22.00;56.20
14705;DHT22;7442;50.840;3.396;2022-10-16T09:01:45;22.00;56.20
14705;DHT22;7442;50.840;3.396;2022-10-16T09:04:32;22.00;56.30
14705;DHT22;7442;50.840;3.396;2022-10-16T09:13:02;22.00;56.40
14705;DHT22;7442;50.840;3.396;2022-10-16T09:15:49;22.10;56.20
14705;DHT22;7442;50.840;3.396;2022-10-16T09:18:26;22.10;56.20
14705;DHT22;7442;50.840;3.396;2022-10-16T09:21:25;22.10;56.30
14705;DHT22;7442;50.840;3.396;2022-10-16T09:23:58;22.10;56.20
14705;DHT22;7442;50.840;3.396;2022-10-16T09:26:28;22.10;56.20
14705;DHT22;7442;50.840;3.396;2022-10-16T09:28:58;22.10;56.30
14705;DHT22;7442;50.840;3.396;2022-10-16T09:31:29;22.10;56.20
14705;DHT22;7442;50.840;3.396;2022-10-16T09:34:01;22.10;56.20
14705;DHT22;7442;50.840;3.396;2022-10-16T09:36:37;22.20;56.20
14705;DHT22;7442;50.840;3.396;2022-10-16T09:39:08;22.30;56.00
14705;DHT22;7442;50.840;3.396;2022-10-16T09:41:43;22.40;55.80
14705;DHT22;7442;50.840;3.396;2022-10-16T09:44:28;22.40;55.60
14705;DHT22;7442;50.840;3.396;2022-10-16T09:47:04;22.40;55.50
14705;DHT22;7442;50.840;3.396;2022-10-16T09:49:36;22.50;55.40
14705;DHT22;7442;50.840;3.396;2022-10-16T09:52:13;22.60;55.20
14705;DHT22;7442;50.840;3.396;2022-10-16T09:54:55;22.60;55.80
14705;DHT22;7442;50.840;3.396;2022-10-16T09:57:25;22.70;55.10
14705;DHT22;7442;50.840;3.396;2022-10-16T09:59:57;22.70;55.00
14705;DHT22;7442;50.840;3.396;2022-10-16T10:02:35;22.80;55.00
14705;DHT22;7442;50.840;3.396;2022-10-16T10:05:17;22.80;54.90
14705;DHT22;7442;50.840;3.396;2022-10-16T10:07:42;22.90;54.80
14705;DHT22;7442;50.840;3.396;2022-10-16T10:10:20;22.90;54.70
14705;DHT22;7442;50.840;3.396;2022-10-16T10:12:51;23.00;54.60
14705;DHT22;7442;50.840;3.396;2022-10-16T10:15:22;22.90;54.60
14705;DHT22;7442;50.840;3.396;2022-10-16T10:17:55;22.90;54.70
14705;DHT22;7442;50.840;3.396;2022-10-16T10:20:28;23.00;54.60
14705;DHT22;7442;50.840;3.396;2022-10-16T10:22:59;23.00;54.60
14705;DHT22;7442;50.840;3.396;2022-10-16T10:28:45;23.10;54.60
14705;DHT22;7442;50.840;3.396;2022-10-16T10:31:26;23.10;54.50
14705;DHT22;7442;50.840;3.396;2022-10-16T10:36:42;23.10;54.60
14705;DHT22;7442;50.840;3.396;2022-10-16T10:39:32;23.20;54.60
14705;DHT22;7442;50.840;3.396;2022-10-16T10:45:17;23.10;54.80
14705;DHT22;7442;50.840;3.396;2022-10-16T10:48:22;23.10;54.80
14705;DHT22;7442;50.840;3.396;2022-10-16T10:51:06;23.20;54.70
14705;DHT22;7442;50.840;3.396;2022-10-16T11:02:10;23.20;55.20
14705;DHT22;7442;50.840;3.396;2022-10-16T11:07:28;23.20;55.60
14705;DHT22;7442;50.840;3.396;2022-10-16T11:10:05;23.30;54.80
14705;DHT22;7442;50.840;3.396;2022-10-16T11:12:38;23.30;54.80
14705;DHT22;7442;50.840;3.396;2022-10-16T11:15:29;23.40;55.10
14705;DHT22;7442;50.840;3.396;2022-10-16T11:18:19;23.40;54.70
14705;DHT22;7442;50.840;3.396;2022-10-16T11:20:57;23.30;55.00
14705;DHT22;7442;50.840;3.396;2022-10-16T11:23:42;23.30;55.00
14705;DHT22;7442;50.840;3.396;2022-10-16T11:26:19;23.40;54.90
14705;DHT22;7442;50.840;3.396;2022-10-16T11:28:51;23.40;54.80
14705;DHT22;7442;50.840;3.396;2022-10-16T11:31:43;23.50;55.00
14705;DHT22;7442;50.840;3.396;2022-10-16T11:37:25;23.40;55.10
14705;DHT22;7442;50.840;3.396;2022-10-16T11:39:58;23.50;54.90
14705;DHT22;7442;50.840;3.396;2022-10-16T11:42:43;23.60;54.80
14705;DHT22;7442;50.840;3.396;2022-10-16T11:45:23;23.50;54.90
14705;DHT22;7442;50.840;3.396;2022-10-16T11:54:20;23.30;55.50
14705;DHT22;7442;50.840;3.396;2022-10-16T11:56:52;23.40;55.40
14705;DHT22;7442;50.840;3.396;2022-10-16T11:59:36;23.50;55.00
14705;DHT22;7442;50.840;3.396;2022-10-16T12:05:14;23.60;54.80
14705;DHT22;7442;50.840;3.396;2022-10-16T12:08:32;23.70;54.80
14705;DHT22;7442;50.840;3.396;2022-10-16T12:10:22;23.60;55.00
14705;DHT22;7442;50.840;3.396;2022-10-16T12:12:52;23.60;55.00
14705;DHT22;7442;50.840;3.396;2022-10-16T12:15:28;23.50;55.20
14705;DHT22;7442;50.840;3.396;2022-10-16T12:17:59;23.40;55.40
14705;DHT22;7442;50.840;3.396;2022-10-16T12:20:31;23.40;55.70
14705;DHT22;7442;50.840;3.396;2022-10-16T12:23:03;23.30;55.80
14705;DHT22;7442;50.840;3.396;2022-10-16T12:28:43;23.50;55.60
14705;DHT22;7442;50.840;3.396;2022-10-16T12:31:14;23.50;55.50
14705;DHT22;7442;50.840;3.396;2022-10-16T12:33:59;23.40;55.70
14705;DHT22;7442;50.840;3.396;2022-10-16T12:36:34;23.30;55.90
14705;DHT22;7442;50.840;3.396;2022-10-16T12:39:05;23.40;55.90
14705;DHT22;7442;50.840;3.396;2022-10-16T12:41:36;23.30;55.90
14705;DHT22;7442;50.840;3.396;2022-10-16T12:44:24;23.40;55.90
14705;DHT22;7442;50.840;3.396;2022-10-16T12:46:57;23.40;56.00
14705;DHT22;7442;50.840;3.396;2022-10-16T12:49:37;23.30;56.00
14705;DHT22;7442;50.840;3.396;2022-10-16T12:52:27;23.30;56.00
14705;DHT22;7442;50.840;3.396;2022-10-16T12:54:58;23.50;55.90
14705;DHT22;7442;50.840;3.396;2022-10-16T13:00:56;23.30;56.00
14705;DHT22;7442;50.840;3.396;2022-10-16T13:08:56;23.40;56.00
14705;DHT22;7442;50.840;3.396;2022-10-16T13:12:02;23.40;55.90
14705;DHT22;7442;50.840;3.396;2022-10-16T13:17:42;23.50;55.80
14705;DHT22;7442;50.840;3.396;2022-10-16T13:22:58;23.50;55.80
14705;DHT22;7442;50.840;3.396;2022-10-16T13:25:46;23.60;55.70
14705;DHT22;7442;50.840;3.396;2022-10-16T13:28:16;23.60;55.60
14705;DHT22;7442;50.840;3.396;2022-10-16T13:30:53;23.60;55.60
14705;DHT22;7442;50.840;3.396;2022-10-16T13:33:42;23.60;55.50
14705;DHT22;7442;50.840;3.396;2022-10-16T13:36:24;23.60;55.40
14705;DHT22;7442;50.840;3.396;2022-10-16T13:39:15;23.60;55.40
14705;DHT22;7442;50.840;3.396;2022-10-16T13:41:58;23.60;55.60
14705;DHT22;7442;50.840;3.396;2022-10-16T13:44:31;23.50;55.70
14705;DHT22;7442;50.840;3.396;2022-10-16T13:47:02;23.50;55.70
14705;DHT22;7442;50.840;3.396;2022-10-16T13:49:32;23.50;55.70
14705;DHT22;7442;50.840;3.396;2022-10-16T13:52:02;23.50;55.70
14705;DHT22;7442;50.840;3.396;2022-10-16T13:54:33;23.60;55.60
14705;DHT22;7442;50.840;3.396;2022-10-16T13:57:06;23.60;55.50
14705;DHT22;7442;50.840;3.396;2022-10-16T13:59:37;23.60;55.50
14705;DHT22;7442;50.840;3.396;2022-10-16T14:02:20;23.70;55.30
14705;DHT22;7442;50.840;3.396;2022-10-16T14:04:50;23.70;55.40
14705;DHT22;7442;50.840;3.396;2022-10-16T14:07:25;23.80;55.20
14705;DHT22;7442;50.840;3.396;2022-10-16T14:10:05;23.80;55.00
14705;DHT22;7442;50.840;3.396;2022-10-16T14:12:36;23.90;55.50
14705;DHT22;7442;50.840;3.396;2022-10-16T14:15:15;23.80;55.00
14705;DHT22;7442;50.840;3.396;2022-10-16T14:17:48;23.80;55.10
14705;DHT22;7442;50.840;3.396;2022-10-16T14:20:15;23.70;55.30
14705;DHT22;7442;50.840;3.396;2022-10-16T14:22:45;23.80;55.20
14705;DHT22;7442;50.840;3.396;2022-10-16T14:28:04;23.70;55.30
14705;DHT22;7442;50.840;3.396;2022-10-16T14:30:36;23.70;55.30
14705;DHT22;7442;50.840;3.396;2022-10-16T14:33:20;23.70;55.30
14705;DHT22;7442;50.840;3.396;2022-10-16T14:35:40;23.60;55.70
14705;DHT22;7442;50.840;3.396;2022-10-16T14:38:18;23.60;55.60
14705;DHT22;7442;50.840;3.396;2022-10-16T14:40:50;23.60;55.50
14705;DHT22;7442;50.840;3.396;2022-10-16T14:43:30;23.60;55.60
14705;DHT22;7442;50.840;3.396;2022-10-16T14:45:57;23.60;55.60
14705;DHT22;7442;50.840;3.396;2022-10-16T14:48:27;23.60;55.80
14705;DHT22;7442;50.840;3.396;2022-10-16T14:50:57;23.50;55.70
14705;DHT22;7442;50.840;3.396;2022-10-16T14:53:27;23.50;55.80
14705;DHT22;7442;50.840;3.396;2022-10-16T14:55:57;23.50;55.80
14705;DHT22;7442;50.840;3.396;2022-10-16T14:58:27;23.50;55.90
14705;DHT22;7442;50.840;3.396;2022-10-16T15:00:57;23.50;56.40
14705;DHT22;7442;50.840;3.396;2022-10-16T15:03:29;23.50;55.90
14705;DHT22;7442;50.840;3.396;2022-10-16T15:05:58;23.40;55.90
14705;DHT22;7442;50.840;3.396;2022-10-16T15:08:29;23.50;56.00
14705;DHT22;7442;50.840;3.396;2022-10-16T15:10:59;23.40;55.90
14705;DHT22;7442;50.840;3.396;2022-10-16T15:13:29;23.50;55.80
14705;DHT22;7442;50.840;3.396;2022-10-16T15:15:59;23.50;55.80
14705;DHT22;7442;50.840;3.396;2022-10-16T15:18:29;23.50;55.90
14705;DHT22;7442;50.840;3.396;2022-10-16T15:20:59;23.40;56.00
14705;DHT22;7442;50.840;3.396;2022-10-16T15:23:29;23.40;56.10
14705;DHT22;7442;50.840;3.396;2022-10-16T15:25:59;23.40;56.20
14705;DHT22;7442;50.840;3.396;2022-10-16T15:28:29;23.30;56.20
14705;DHT22;7442;50.840;3.396;2022-10-16T15:30:59;23.40;56.10
14705;DHT22;7442;50.840;3.396;2022-10-16T15:33:29;23.30;56.20
14705;DHT22;7442;50.840;3.396;2022-10-16T15:36:02;23.30;56.20
14705;DHT22;7442;50.840;3.396;2022-10-16T15:38:32;23.30;56.20
14705;DHT22;7442;50.840;3.396;2022-10-16T15:41:02;23.30;56.20
14705;DHT22;7442;50.840;3.396;2022-10-16T15:43:32;23.30;56.20
14705;DHT22;7442;50.840;3.396;2022-10-16T15:46:05;23.30;56.10
14705;DHT22;7442;50.840;3.396;2022-10-16T15:48:37;23.30;56.30
14705;DHT22;7442;50.840;3.396;2022-10-16T15:51:08;23.20;56.40
14705;DHT22;7442;50.840;3.396;2022-10-16T15:53:38;23.20;56.40
14705;DHT22;7442;50.840;3.396;2022-10-16T15:56:10;23.30;56.40
14705;DHT22;7442;50.840;3.396;2022-10-16T15:58:40;23.30;56.20
14705;DHT22;7442;50.840;3.396;2022-10-16T16:01:10;23.30;56.20
14705;DHT22;7442;50.840;3.396;2022-10-16T16:03:40;23.30;56.90
14705;DHT22;7442;50.840;3.396;2022-10-16T16:06:12;23.30;56.10
14705;DHT22;7442;50.840;3.396;2022-10-16T16:08:43;23.30;56.20
14705;DHT22;7442;50.840;3.396;2022-10-16T16:11:15;23.30;56.20
14705;DHT22;7442;50.840;3.396;2022-10-16T16:13:45;23.20;56.30
14705;DHT22;7442;50.840;3.396;2022-10-16T16:16:16;23.20;56.40
14705;DHT22;7442;50.840;3.396;2022-10-16T16:18:52;23.10;56.60
14705;DHT22;7442;50.840;3.396;2022-10-16T16:21:22;23.10;56.60
14705;DHT22;7442;50.840;3.396;2022-10-16T16:23:52;23.10;56.60
14705;DHT22;7442;50.840;3.396;2022-10-16T16:26:27;23.20;56.50
14705;DHT22;7442;50.840;3.396;2022-10-16T16:28:59;23.20;56.40
14705;DHT22;7442;50.840;3.396;2022-10-16T16:31:31;23.20;56.30
14705;DHT22;7442;50.840;3.396;2022-10-16T16:34:02;23.20;56.40
14705;DHT22;7442;50.840;3.396;2022-10-16T16:36:33;23.10;56.60
14705;DHT22;7442;50.840;3.396;2022-10-16T16:39:03;23.10;56.70
14705;DHT22;7442;50.840;3.396;2022-10-16T16:41:33;23.10;56.60
14705;DHT22;7442;50.840;3.396;2022-10-16T16:44:05;23.10;56.70
14705;DHT22;7442;50.840;3.396;2022-10-16T16:46:36;23.10;56.70
14705;DHT22;7442;50.840;3.396;2022-10-16T16:49:11;23.10;56.60
14705;DHT22;7442;50.840;3.396;2022-10-16T16:51:41;23.10;56.60
14705;DHT22;7442;50.840;3.396;2022-10-16T16:54:13;23.10;56.70
14705;DHT22;7442;50.840;3.396;2022-10-16T16:56:48;23.00;56.70
14705;DHT22;7442;50.840;3.396;2022-10-16T16:59:20;23.00;56.80
14705;DHT22;7442;50.840;3.396;2022-10-16T17:01:50;23.00;56.90
14705;DHT22;7442;50.840;3.396;2022-10-16T17:04:32;23.00;56.90
14705;DHT22;7442;50.840;3.396;2022-10-16T17:06:58;22.90;57.00
14705;DHT22;7442;50.840;3.396;2022-10-16T17:09:32;22.90;57.00
14705;DHT22;7442;50.840;3.396;2022-10-16T17:12:02;22.90;57.00
14705;DHT22;7442;50.840;3.396;2022-10-16T17:14:34;22.90;57.00
14705;DHT22;7442;50.840;3.396;2022-10-16T17:17:07;22.90;57.00
14705;DHT22;7442;50.840;3.396;2022-10-16T17:19:41;22.90;56.90
14705;DHT22;7442;50.840;3.396;2022-10-16T17:22:11;22.90;57.00
14705;DHT22;7442;50.840;3.396;2022-10-16T17:24:41;22.90;56.90
14705;DHT22;7442;50.840;3.396;2022-10-16T17:27:20;22.90;57.00